createdAt,value
2023-01-11T00:00:22.469Z,18.86
2023-01-11T00:02:49.854Z,18.80
2023-01-11T00:05:16.368Z,18.75
2023-01-11T00:07:42.840Z,18.74
2023-01-11T00:10:09.337Z,18.76
2023-01-11T00:12:36.734Z,18.84
2023-01-11T00:17:49.165Z,18.80
2023-01-11T00:20:15.655Z,18.83
2023-01-11T00:22:43.042Z,18.83
2023-01-11T00:25:10.515Z,18.87
2023-01-11T00:27:37.835Z,18.79
2023-01-11T00:32:48.836Z,18.84
2023-01-11T00:35:15.319Z,18.82
2023-01-11T00:37:42.675Z,18.87
2023-01-11T00:40:10.027Z,18.80
2023-01-11T00:42:36.482Z,18.83
2023-01-11T00:47:46.887Z,18.76
2023-01-11T00:50:13.361Z,18.79
2023-01-11T00:52:39.808Z,18.77
2023-01-11T00:55:06.298Z,18.80
2023-01-11T00:57:33.647Z,18.73
2023-01-11T01:02:54.261Z,18.81
2023-01-11T01:05:21.642Z,18.76
2023-01-11T01:07:49.044Z,18.78
2023-01-11T01:10:16.488Z,18.72
2023-01-11T01:12:43.874Z,18.76
2023-01-11T01:17:55.354Z,18.75
2023-01-11T01:20:21.835Z,18.78
2023-01-11T01:22:49.262Z,18.79
2023-01-11T01:25:15.771Z,18.72
2023-01-11T01:27:42.249Z,18.79
2023-01-11T01:33:06.933Z,18.71
2023-01-11T01:35:33.410Z,18.83
2023-01-11T01:38:00.793Z,18.74
2023-01-11T01:40:27.283Z,18.88
2023-01-11T01:42:54.707Z,18.84
2023-01-11T01:48:15.738Z,18.83
2023-01-11T01:50:43.188Z,18.81
2023-01-11T01:53:10.478Z,18.77
2023-01-11T01:55:37.806Z,18.78
2023-01-11T01:58:06.929Z,18.77
2023-01-11T02:03:18.546Z,18.80
2023-01-11T02:05:45.898Z,18.78
2023-01-11T02:08:12.343Z,18.81
2023-01-11T02:10:39.700Z,18.83
2023-01-11T02:13:07.051Z,18.78
2023-01-11T02:18:30.372Z,18.80
2023-01-11T02:20:58.694Z,18.79
2023-01-11T02:23:25.165Z,18.76
2023-01-11T02:25:51.634Z,18.84
2023-01-11T02:28:18.109Z,18.77
2023-01-11T02:33:29.603Z,18.83
2023-01-11T02:35:56.927Z,18.81
2023-01-11T02:38:24.269Z,18.84
2023-01-11T02:40:50.734Z,18.79
2023-01-11T02:43:17.206Z,18.80
2023-01-11T02:48:29.563Z,18.79
2023-01-11T02:50:56.901Z,18.78
2023-01-11T02:53:23.354Z,18.87
2023-01-11T02:55:50.753Z,18.78
2023-01-11T02:58:17.221Z,18.79
2023-01-11T03:03:39.612Z,18.76
2023-01-11T03:06:06.063Z,18.73
2023-01-11T03:08:33.360Z,18.77
2023-01-11T03:11:00.717Z,18.77
2023-01-11T03:13:28.059Z,18.77
2023-01-11T03:15:55.492Z,18.72
2023-01-11T03:18:23.864Z,18.76
2023-01-11T03:20:50.324Z,18.77
2023-01-11T03:23:16.801Z,18.72
2023-01-11T03:25:43.247Z,18.77
2023-01-11T03:28:09.703Z,18.73
2023-01-11T03:30:36.163Z,18.73
2023-01-11T03:33:03.460Z,18.72
2023-01-11T03:35:30.835Z,18.75
2023-01-11T03:37:58.213Z,18.80
2023-01-11T03:40:26.536Z,18.78
2023-01-11T03:42:53.871Z,18.76
2023-01-11T03:45:20.333Z,18.78
2023-01-11T03:47:47.668Z,18.77
2023-01-11T03:50:14.138Z,18.75
2023-01-11T03:52:41.454Z,18.74
2023-01-11T03:55:08.772Z,18.74
2023-01-11T03:57:35.249Z,18.70
2023-01-11T04:00:02.533Z,18.76
2023-01-11T04:02:28.995Z,18.74
2023-01-11T04:04:56.314Z,18.74
2023-01-11T04:07:22.776Z,18.74
2023-01-11T04:09:50.229Z,18.74
2023-01-11T04:12:16.720Z,18.74
2023-01-11T04:14:44.042Z,18.73
2023-01-11T04:17:10.498Z,18.75
2023-01-11T04:19:37.854Z,18.69
2023-01-11T04:22:04.347Z,18.77
2023-01-11T04:24:32.659Z,18.78
2023-01-11T04:26:59.949Z,18.73
2023-01-11T04:29:27.275Z,18.76
2023-01-11T04:31:53.774Z,18.74
2023-01-11T04:37:15.731Z,18.72
2023-01-11T04:39:42.269Z,18.66
2023-01-11T04:42:09.588Z,18.72
2023-01-11T04:44:36.879Z,18.78
2023-01-11T04:47:05.244Z,18.73
2023-01-11T04:52:16.806Z,18.81
2023-01-11T04:54:44.104Z,18.77
2023-01-11T04:57:11.411Z,18.80
2023-01-11T04:59:38.766Z,18.75
2023-01-11T05:02:05.212Z,18.76
2023-01-11T05:07:26.541Z,18.75
2023-01-11T05:09:53.874Z,18.72
2023-01-11T05:12:20.319Z,18.71
2023-01-11T05:14:48.646Z,18.76
2023-01-11T05:17:15.110Z,18.74
2023-01-11T05:22:26.350Z,18.75
2023-01-11T05:24:52.835Z,18.77
2023-01-11T05:27:21.095Z,18.82
2023-01-11T05:29:48.422Z,18.81
2023-01-11T05:32:14.860Z,18.82
2023-01-11T05:37:36.065Z,18.81
2023-01-11T05:40:02.555Z,18.81
2023-01-11T05:42:29.903Z,18.88
2023-01-11T05:44:58.092Z,18.88
2023-01-11T05:47:26.625Z,18.88
2023-01-11T05:52:37.840Z,18.87
2023-01-11T05:55:04.259Z,18.84
2023-01-11T05:57:34.251Z,18.78
2023-01-11T06:00:01.550Z,18.73
2023-01-11T06:02:28.110Z,18.77
2023-01-11T06:07:50.326Z,18.77
2023-01-11T06:10:16.899Z,18.75
2023-01-11T06:12:45.234Z,18.78
2023-01-11T06:15:11.643Z,18.76
2023-01-11T06:17:38.136Z,18.76
2023-01-11T06:22:52.219Z,18.81
2023-01-11T06:25:18.739Z,18.84
2023-01-11T06:27:46.198Z,18.80
2023-01-11T06:30:12.691Z,18.81
2023-01-11T06:32:39.423Z,18.88
2023-01-11T06:38:00.118Z,18.92
2023-01-11T06:40:27.613Z,18.94
2023-01-11T06:42:55.018Z,18.96
2023-01-11T06:45:22.414Z,18.89
2023-01-11T06:47:49.216Z,18.97
2023-01-11T06:53:00.371Z,18.93
2023-01-11T06:55:27.833Z,18.89
2023-01-11T06:57:54.535Z,18.88
2023-01-11T07:00:21.350Z,18.90
2023-01-11T07:02:48.238Z,18.86
2023-01-11T07:08:10.113Z,18.91
2023-01-11T07:10:36.865Z,18.95
2023-01-11T07:13:03.608Z,18.86
2023-01-11T07:15:30.097Z,18.88
2023-01-11T07:17:57.511Z,18.91
2023-01-11T07:23:08.343Z,18.88
2023-01-11T07:25:34.802Z,18.90
2023-01-11T07:28:01.255Z,18.86
2023-01-11T07:30:27.711Z,18.84
2023-01-11T07:32:54.312Z,18.95
2023-01-11T07:38:15.603Z,18.87
2023-01-11T07:40:42.119Z,18.88
2023-01-11T07:43:08.571Z,18.89
2023-01-11T07:45:45.460Z,18.86
2023-01-11T07:48:12.810Z,18.82
2023-01-11T07:53:24.044Z,18.75
2023-01-11T07:55:51.398Z,18.73
2023-01-11T07:58:17.901Z,18.72
2023-01-11T08:00:44.376Z,18.76
2023-01-11T08:03:11.898Z,18.73
2023-01-11T08:08:23.784Z,18.74
2023-01-11T08:10:50.295Z,18.77
2023-01-11T08:13:16.968Z,18.73
2023-01-11T08:15:43.559Z,18.77
2023-01-11T08:18:10.138Z,18.74
2023-01-11T08:20:36.658Z,18.80
2023-01-11T08:23:04.091Z,18.89
2023-01-11T08:25:30.633Z,18.83
2023-01-11T08:27:57.106Z,18.82
2023-01-11T08:30:24.506Z,18.88
2023-01-11T08:32:51.934Z,18.86
2023-01-11T08:35:19.349Z,18.89
2023-01-11T08:37:45.885Z,18.94
2023-01-11T08:40:12.374Z,18.89
2023-01-11T08:42:39.851Z,18.94
2023-01-11T08:45:06.326Z,18.94
2023-01-11T08:47:33.777Z,18.97
2023-01-11T08:50:01.165Z,18.98
2023-01-11T08:52:28.598Z,18.99
2023-01-11T08:54:55.139Z,18.99
2023-01-11T08:57:22.575Z,19.04
2023-01-11T08:59:49.057Z,19.03
2023-01-11T09:02:16.452Z,18.95
2023-01-11T09:04:42.929Z,19.02
2023-01-11T09:07:10.319Z,18.97
2023-01-11T09:09:36.807Z,19.02
2023-01-11T09:12:05.607Z,18.99
2023-01-11T09:14:33.263Z,18.94
2023-01-11T09:16:59.762Z,18.94
2023-01-11T09:19:26.250Z,18.89
2023-01-11T09:21:52.732Z,18.92
2023-01-11T09:24:20.164Z,18.92
2023-01-11T09:26:46.751Z,18.90
2023-01-11T09:29:14.325Z,19.00
2023-01-11T09:31:40.897Z,18.92
2023-01-11T09:34:07.429Z,18.89
2023-01-11T09:36:33.899Z,18.89
2023-01-11T09:41:44.470Z,18.87
2023-01-11T09:44:10.932Z,18.91
2023-01-11T09:46:38.396Z,18.93
2023-01-11T09:49:04.871Z,18.94
2023-01-11T09:51:32.268Z,18.97
2023-01-11T09:56:44.468Z,18.94
2023-01-11T09:59:10.915Z,18.91
2023-01-11T10:01:37.385Z,18.97
2023-01-11T10:04:04.773Z,18.95
2023-01-11T10:06:31.222Z,18.96
2023-01-11T10:18:31.139Z,18.88
2023-01-11T10:18:34.254Z,18.93
2023-01-11T10:20:02.983Z,18.88
2023-01-11T10:22:30.516Z,18.93
2023-01-11T10:27:42.269Z,19.00
2023-01-11T10:30:09.724Z,19.07
2023-01-11T10:32:36.184Z,19.02
2023-01-11T10:35:03.644Z,18.98
2023-01-11T10:37:30.125Z,18.98
2023-01-11T10:42:52.209Z,18.99
2023-01-11T10:45:18.700Z,19.00
2023-01-11T10:47:45.182Z,18.98
2023-01-11T10:50:12.647Z,18.94
2023-01-11T10:52:40.067Z,18.95
2023-01-11T10:58:03.283Z,18.92
2023-01-11T11:00:31.357Z,18.96
2023-01-11T11:02:58.787Z,18.95
2023-01-11T11:05:26.216Z,18.95
2023-01-11T11:07:53.644Z,18.97
2023-01-11T11:13:04.901Z,18.92
2023-01-11T11:15:31.444Z,18.95
2023-01-11T11:17:57.965Z,18.98
2023-01-11T11:20:25.349Z,18.96
2023-01-11T11:22:51.888Z,18.97
2023-01-11T11:28:03.512Z,18.93
2023-01-11T11:30:29.966Z,18.95
2023-01-11T11:32:56.518Z,18.95
2023-01-11T11:35:22.993Z,18.96
2023-01-11T11:37:50.384Z,18.98
2023-01-11T11:43:12.876Z,18.96
2023-01-11T11:45:40.334Z,18.96
2023-01-11T11:48:06.781Z,18.98
2023-01-11T11:50:44.864Z,19.05
2023-01-11T11:53:12.913Z,19.02
2023-01-11T11:58:24.604Z,19.06
2023-01-11T12:00:51.079Z,19.03
2023-01-11T12:03:17.582Z,19.03
2023-01-11T12:05:44.943Z,19.00
2023-01-11T12:08:11.402Z,18.92
2023-01-11T12:13:23.516Z,18.98
2023-01-11T12:15:49.959Z,19.05
2023-01-11T12:18:16.376Z,19.03
2023-01-11T12:20:42.775Z,19.02
2023-01-11T12:23:09.229Z,19.01
2023-01-11T12:28:21.277Z,19.05
2023-01-11T12:30:47.732Z,18.97
2023-01-11T12:33:16.060Z,18.81
2023-01-11T12:35:42.541Z,18.78
2023-01-11T12:38:09.045Z,18.56
2023-01-11T12:43:30.262Z,18.42
2023-01-11T12:45:57.698Z,18.37
2023-01-11T12:48:25.043Z,18.36
2023-01-11T12:50:52.466Z,18.35
2023-01-11T12:53:19.886Z,18.32
2023-01-11T12:58:41.247Z,18.28
2023-01-11T13:01:07.997Z,18.28
2023-01-11T13:03:34.558Z,18.24
2023-01-11T13:06:01.931Z,18.25
2023-01-11T13:08:28.407Z,18.22
2023-01-11T13:13:40.676Z,18.22
2023-01-11T13:16:07.109Z,18.17
2023-01-11T13:18:34.512Z,18.15
2023-01-11T13:21:02.929Z,18.16
2023-01-11T13:23:31.063Z,18.12
2023-01-11T13:28:41.743Z,18.07
2023-01-11T13:31:08.205Z,18.12
2023-01-11T13:33:34.671Z,18.13
2023-01-11T13:36:01.796Z,18.03
2023-01-11T13:38:28.327Z,18.05
2023-01-11T13:43:49.355Z,18.05
2023-01-11T13:46:16.744Z,18.01
2023-01-11T13:48:44.102Z,18.05
2023-01-11T13:51:11.433Z,18.03
2023-01-11T13:53:37.909Z,18.04
2023-01-11T13:58:59.531Z,17.94
2023-01-11T14:01:27.971Z,17.96
2023-01-11T14:03:54.498Z,17.95
2023-01-11T14:06:20.952Z,17.92
2023-01-11T14:08:48.267Z,17.93
2023-01-11T14:14:00.415Z,17.92
2023-01-11T14:16:26.867Z,17.94
2023-01-11T14:18:53.304Z,17.95
2023-01-11T14:21:19.769Z,17.88
2023-01-11T14:23:47.146Z,17.80
2023-01-11T14:26:14.516Z,17.87
2023-01-11T14:28:44.264Z,18.16
2023-01-11T14:31:11.863Z,18.27
2023-01-11T14:33:39.285Z,18.38
2023-01-11T14:36:06.156Z,18.44
2023-01-11T14:38:33.515Z,18.48
2023-01-11T14:41:01.834Z,18.41
2023-01-11T14:43:29.115Z,18.47
2023-01-11T14:45:56.500Z,18.44
2023-01-11T14:48:23.021Z,18.49
2023-01-11T14:50:50.266Z,18.45
2023-01-11T14:53:17.685Z,18.41
2023-01-11T14:55:44.177Z,18.49
2023-01-11T14:58:12.496Z,18.45
2023-01-11T15:00:38.992Z,18.48
2023-01-11T15:03:06.410Z,18.51
2023-01-11T15:05:33.162Z,18.50
2023-01-11T15:08:00.540Z,18.55
2023-01-11T15:10:26.998Z,18.54
2023-01-11T15:12:53.450Z,18.54
2023-01-11T15:15:19.872Z,18.58
2023-01-11T15:17:48.262Z,18.56
2023-01-11T15:20:16.513Z,18.50
2023-01-11T15:22:43.969Z,18.45
2023-01-11T15:25:11.388Z,18.39
2023-01-11T15:27:37.962Z,18.45
2023-01-11T15:30:04.553Z,18.42
2023-01-11T15:32:32.205Z,18.44
2023-01-11T15:34:58.744Z,18.41
2023-01-11T15:37:25.209Z,18.43
2023-01-11T15:39:51.701Z,18.39
2023-01-11T15:42:18.197Z,18.41
2023-01-11T15:47:39.906Z,18.57
2023-01-11T15:50:06.430Z,18.54
2023-01-11T15:52:32.966Z,18.53
2023-01-11T15:54:59.640Z,18.51
2023-01-11T15:57:26.118Z,18.56
2023-01-11T16:02:36.531Z,18.55
2023-01-11T16:05:03.023Z,18.57
2023-01-11T16:07:30.435Z,18.56
2023-01-11T16:09:56.979Z,18.54
2023-01-11T16:12:23.459Z,18.58
2023-01-11T16:17:33.994Z,18.56
2023-01-11T16:20:01.442Z,18.60
2023-01-11T16:22:27.978Z,18.59
2023-01-11T16:24:55.364Z,18.62
2023-01-11T16:27:21.984Z,18.54
2023-01-11T16:32:42.688Z,18.58
2023-01-11T16:35:09.198Z,18.64
2023-01-11T16:37:35.995Z,18.54
2023-01-11T16:40:03.417Z,18.52
2023-01-11T16:42:29.891Z,18.44
2023-01-11T16:47:50.221Z,18.56
2023-01-11T16:50:17.626Z,18.53
2023-01-11T16:52:44.096Z,18.57
2023-01-11T16:55:11.512Z,18.65
2023-01-11T16:57:37.973Z,18.62
2023-01-11T17:02:59.258Z,18.73
2023-01-11T17:05:26.577Z,18.72
2023-01-11T17:07:53.863Z,18.69
2023-01-11T17:10:21.213Z,18.77
2023-01-11T17:12:47.676Z,18.74
2023-01-11T17:18:10.181Z,18.75
2023-01-11T17:20:37.495Z,18.74
2023-01-11T17:23:04.773Z,18.75
2023-01-11T17:25:43.830Z,18.77
2023-01-11T17:28:11.872Z,18.70
2023-01-11T17:33:35.226Z,18.71
2023-01-11T17:36:04.379Z,18.71
2023-01-11T17:38:30.801Z,18.72
2023-01-11T17:40:57.244Z,18.72
2023-01-11T17:43:25.600Z,18.68
2023-01-11T17:48:37.846Z,18.69
2023-01-11T17:51:07.019Z,18.69
2023-01-11T17:53:34.310Z,18.69
2023-01-11T17:56:00.783Z,18.70
2023-01-11T17:58:27.241Z,18.68
2023-01-11T18:03:39.356Z,18.68
2023-01-11T18:06:07.656Z,18.67
2023-01-11T18:08:34.194Z,18.65
2023-01-11T18:11:02.577Z,18.64
2023-01-11T18:13:29.132Z,18.65
2023-01-11T18:18:41.510Z,18.65
2023-01-11T18:21:07.985Z,18.63
2023-01-11T18:23:37.195Z,18.63
2023-01-11T18:26:03.655Z,18.59
2023-01-11T18:28:30.117Z,18.58
2023-01-11T18:33:43.417Z,18.56
2023-01-11T18:36:11.712Z,18.59
2023-01-11T18:38:38.965Z,18.57
2023-01-11T18:41:06.226Z,18.59
2023-01-11T18:43:32.814Z,18.73
2023-01-11T18:48:44.775Z,18.62
2023-01-11T18:51:12.075Z,18.62
2023-01-11T18:53:38.579Z,18.64
2023-01-11T18:56:05.083Z,18.63
2023-01-11T18:58:31.529Z,18.63
2023-01-11T19:03:52.522Z,18.63
2023-01-11T19:06:19.800Z,18.56
2023-01-11T19:08:46.311Z,18.59
2023-01-11T19:11:14.937Z,18.59
2023-01-11T19:13:45.672Z,18.60
2023-01-11T19:18:57.652Z,18.54
2023-01-11T19:21:25.948Z,18.56
2023-01-11T19:23:55.231Z,18.54
2023-01-11T19:26:22.503Z,18.59
2023-01-11T19:28:49.025Z,18.57
2023-01-11T19:34:11.322Z,18.64
2023-01-11T19:36:38.595Z,18.65
2023-01-11T19:39:05.077Z,18.65
2023-01-11T19:41:34.279Z,18.69
2023-01-11T19:44:04.203Z,18.71
2023-01-11T19:49:25.357Z,18.60
2023-01-11T19:51:52.787Z,18.60
2023-01-11T19:54:21.120Z,18.59
2023-01-11T19:56:47.549Z,18.58
2023-01-11T19:59:14.061Z,18.58
2023-01-11T20:04:26.435Z,18.59
2023-01-11T20:06:53.696Z,18.58
2023-01-11T20:09:21.054Z,18.61
2023-01-11T20:11:48.662Z,18.59
2023-01-11T20:14:15.115Z,18.61
2023-01-11T20:19:27.483Z,18.60
2023-01-11T20:21:54.791Z,18.59
2023-01-11T20:24:22.260Z,18.59
2023-01-11T20:26:48.766Z,18.59
2023-01-11T20:29:16.178Z,18.60
2023-01-11T20:34:26.586Z,18.64
2023-01-11T20:36:53.010Z,18.62
2023-01-11T20:39:20.281Z,18.68
2023-01-11T20:41:47.667Z,18.65
2023-01-11T20:44:14.110Z,18.64
2023-01-11T20:46:41.560Z,18.67
2023-01-11T20:49:08.936Z,18.71
2023-01-11T20:51:35.653Z,18.66
2023-01-11T20:54:02.107Z,18.71
2023-01-11T20:56:28.609Z,18.68
2023-01-11T20:58:56.029Z,18.67
2023-01-11T21:01:22.573Z,18.62
2023-01-11T21:03:49.216Z,18.66
2023-01-11T21:06:16.645Z,18.66
2023-01-11T21:08:43.149Z,18.67
2023-01-11T21:11:11.815Z,18.71
2023-01-11T21:13:38.272Z,18.68
2023-01-11T21:16:04.801Z,18.76
2023-01-11T21:18:31.319Z,18.77
2023-01-11T21:20:58.718Z,18.72
2023-01-11T21:23:25.359Z,18.69
2023-01-11T21:25:52.774Z,18.68
2023-01-11T21:28:20.143Z,18.72
2023-01-11T21:30:47.390Z,18.72
2023-01-11T21:33:16.911Z,18.67
2023-01-11T21:35:44.369Z,18.66
2023-01-11T21:38:10.815Z,18.72
2023-01-11T21:40:38.111Z,18.69
2023-01-11T21:43:04.571Z,18.68
2023-01-11T21:45:31.936Z,18.66
2023-01-11T21:47:59.307Z,18.66
2023-01-11T21:50:25.778Z,18.71
2023-01-11T21:52:52.393Z,18.64
2023-01-11T21:55:19.711Z,18.70
2023-01-11T21:57:47.077Z,18.63
2023-01-11T22:00:14.396Z,18.64
2023-01-11T22:02:41.777Z,18.64
2023-01-11T22:08:03.890Z,18.61
2023-01-11T22:10:31.464Z,18.63
2023-01-11T22:12:58.849Z,18.62
2023-01-11T22:15:26.184Z,18.65
2023-01-11T22:17:53.445Z,18.69
2023-01-11T22:23:05.850Z,18.76
2023-01-11T22:25:33.249Z,18.71
2023-01-11T22:28:00.663Z,18.70
2023-01-11T22:30:27.125Z,18.68
2023-01-11T22:32:53.597Z,18.67
2023-01-11T22:38:04.298Z,18.69
2023-01-11T22:40:31.579Z,18.70
2023-01-11T22:42:58.012Z,18.71
2023-01-11T22:45:25.331Z,18.65
2023-01-11T22:47:51.794Z,18.62
2023-01-11T22:53:03.239Z,18.63
2023-01-11T22:55:29.699Z,18.65
2023-01-11T22:57:56.111Z,18.69
2023-01-11T23:00:23.450Z,18.65
2023-01-11T23:02:50.808Z,18.64
2023-01-11T23:08:12.136Z,18.70
2023-01-11T23:10:38.585Z,18.70
2023-01-11T23:13:05.859Z,18.68
2023-01-11T23:15:32.319Z,18.68
2023-01-11T23:17:59.548Z,18.63
2023-01-11T23:23:20.084Z,18.63
2023-01-11T23:25:48.490Z,18.66
2023-01-11T23:28:16.758Z,18.63
2023-01-11T23:30:45.081Z,18.58
2023-01-11T23:33:12.323Z,18.65
2023-01-11T23:38:24.269Z,18.62
2023-01-11T23:40:50.735Z,18.62
2023-01-11T23:43:17.214Z,18.61
2023-01-11T23:45:44.553Z,18.55
2023-01-11T23:48:11.043Z,18.59
2023-01-11T23:53:32.265Z,18.59
2023-01-11T23:56:02.251Z,18.57
2023-01-11T23:58:29.500Z,18.57
